Time;durP1;ratioP1;P1;durP2;ratioP2;P2;SDS_P1;SDS_P2;PMS_P1;PMS_P2;Temp;Humidity;BMP_temperature;BMP_pressure;BME280_temperature;BME280_humidity;BME280_pressure;Samples;Min_cycle;Max_cycle;Signal;HPM_P1;HPM_P2
2022/03/22 00:02:36;;;;;;;14.52;7.28;;;;;;;5.47;48.34;101293.28;12205870;19;20042;-78
2022/03/22 00:06:38;;;;;;;14.18;8.48;;;;;;;5.40;48.26;101296.88;12187369;19;20086;-78
2022/03/22 00:10:40;;;;;;;15.75;7.90;;;;;;;5.32;48.69;101295.03;12210063;19;20011;-78
2022/03/22 00:14:43;;;;;;;15.20;7.65;;;;;;;5.24;48.97;101304.16;12213830;19;20030;-78
2022/03/22 00:19:05;;;;;;;13.05;7.22;;;;;;;5.19;48.94;101301.09;12187683;19;20006;-79
2022/03/22 00:23:06;;;;;;;12.70;6.95;;;;;;;5.16;48.95;101295.97;12215133;19;20078;-78
2022/03/22 00:27:09;;;;;;;15.15;7.00;;;;;;;5.14;48.70;101302.66;12195130;19;20112;-78
2022/03/22 00:31:11;;;;;;;14.10;7.05;;;;;;;5.14;48.37;101295.31;12207973;19;20753;-78
2022/03/22 00:35:18;;;;;;;;;;;;;;;5.17;48.82;101302.28;12210739;19;20015;-79
2022/03/22 00:39:21;;;;;;;13.45;7.28;;;;;;;5.13;48.44;101306.44;12186278;19;19914;-79
2022/03/22 00:43:24;;;;;;;16.33;6.95;;;;;;;5.08;48.24;101298.75;12210091;19;20027;-79
2022/03/22 00:47:26;;;;;;;15.03;7.77;;;;;;;5.07;48.33;101301.66;12207581;19;20075;-78
2022/03/22 00:51:29;;;;;;;12.20;7.28;;;;;;;5.08;48.44;101297.91;12186909;19;20014;-78
2022/03/22 00:55:31;;;;;;;14.40;7.93;;;;;;;5.11;48.34;101303.00;12200858;19;20023;-78
2022/03/22 01:03:56;;;;;;;14.55;7.20;;;;;;;5.16;48.07;101285.06;12172881;19;20046;-78
2022/03/22 01:08:05;;;;;;;14.73;7.05;;;;;;;5.26;47.70;101293.03;12204746;19;20014;-78
2022/03/22 01:12:07;;;;;;;14.48;8.13;;;;;;;5.36;47.63;101282.75;12178017;19;20013;-78
2022/03/22 01:16:09;;;;;;;14.13;7.13;;;;;;;5.39;47.58;101290.56;12211681;19;20015;-78
2022/03/22 01:20:11;;;;;;;14.07;6.88;;;;;;;5.41;47.54;101288.53;12212394;19;20126;-78
2022/03/22 01:24:13;;;;;;;13.43;6.43;;;;;;;5.41;47.58;101283.06;12180990;19;20452;-78
2022/03/22 01:28:17;;;;;;;13.95;7.95;;;;;;;5.43;47.56;101283.72;12209973;19;20018;-78
2022/03/22 01:32:20;;;;;;;15.23;7.40;;;;;;;5.42;47.54;101271.09;12205434;19;21354;-78
2022/03/22 01:36:21;;;;;;;15.90;7.50;;;;;;;5.39;47.30;101274.19;12185743;19;20374;-78
2022/03/22 01:40:25;;;;;;;12.10;6.68;;;;;;;5.42;47.29;101272.97;12209962;19;20064;-79
2022/03/22 01:44:28;;;;;;;12.93;6.88;;;;;;;5.39;47.29;101268.72;12201675;19;20010;-78
2022/03/22 01:48:31;;;;;;;14.05;7.40;;;;;;;5.37;47.53;101268.03;12187992;19;20018;-78
2022/03/22 01:52:35;;;;;;;16.85;8.00;;;;;;;5.38;47.49;101266.97;12205927;19;20389;-78
2022/03/22 01:56:37;;;;;;;13.75;7.35;;;;;;;5.37;47.34;101265.28;12210864;19;20082;-78
2022/03/22 02:00:39;;;;;;;15.07;7.03;;;;;;;5.35;47.73;101261.88;12184675;19;20023;-78
2022/03/22 02:09:03;;;;;;;15.45;8.13;;;;;;;5.30;47.63;101253.38;12186466;19;20026;-78
2022/03/22 02:13:05;;;;;;;15.52;7.40;;;;;;;5.31;47.68;101246.88;12200556;19;20413;-78
2022/03/22 02:17:09;;;;;;;13.20;7.05;;;;;;;5.33;47.64;101242.09;12208689;19;20011;-78
2022/03/22 02:21:14;;;;;;;14.43;7.72;;;;;;;5.35;47.66;101241.91;12188484;19;20024;-78
2022/03/22 02:25:17;;;;;;;14.23;7.60;;;;;;;5.36;47.66;101243.63;12210076;19;20011;-79
2022/03/22 02:29:19;;;;;;;;;;;;;;;5.34;47.94;101242.94;12196303;19;20030;-79
2022/03/22 02:33:21;;;;;;;17.75;7.00;;;;;;;5.33;47.58;101233.91;12185690;19;20349;-79
2022/03/22 02:37:23;;;;;;;15.95;7.50;;;;;;;5.32;47.66;101239.53;12205327;19;20024;-79
2022/03/22 02:41:25;;;;;;;15.98;8.55;;;;;;;5.31;47.75;101235.94;12208940;19;20058;-77
2022/03/22 02:45:28;;;;;;;;;;;;;;;5.29;47.88;101232.53;12188117;19;20459;-78
2022/03/22 02:49:34;;;;;;;17.13;8.23;;;;;;;5.30;47.85;101230.69;12210823;19;20329;-77
2022/03/22 02:53:36;;;;;;;13.05;7.70;;;;;;;5.29;47.62;101232.53;12206877;19;20022;-77
2022/03/22 02:57:39;;;;;;;15.55;7.93;;;;;;;5.27;48.01;101226.41;12184389;19;20425;-78
2022/03/22 03:01:41;;;;;;;;;;;;;;;5.27;48.17;101228.31;12197435;19;20090;-78
2022/03/22 03:05:43;;;;;;;12.80;7.72;;;;;;;5.22;47.97;101235.16;12202273;19;19938;-78
2022/03/22 03:09:45;;;;;;;13.90;7.82;;;;;;;5.19;48.03;101231.94;12173479;19;20081;-77
2022/03/22 03:18:08;;;;;;;14.10;7.50;;;;;;;5.10;48.24;101233.00;12176110;19;20098;-77
2022/03/22 03:22:11;;;;;;;15.55;7.88;;;;;;;5.07;48.74;101230.63;12204017;19;20007;-77
2022/03/22 03:26:12;;;;;;;18.98;8.98;;;;;;;5.04;48.47;101234.56;12201353;19;20100;-78
2022/03/22 03:30:14;;;;;;;19.17;8.60;;;;;;;5.00;49.32;101230.50;12176417;19;20028;-78
2022/03/22 03:34:16;;;;;;;13.57;8.23;;;;;;;5.00;48.83;101236.81;12203587;19;20018;-77
2022/03/22 03:38:18;;;;;;;17.45;8.20;;;;;;;5.04;48.75;101234.56;12204259;19;20014;-78
2022/03/22 03:42:22;;;;;;;17.85;8.75;;;;;;;5.01;48.70;101233.03;12182190;19;20010;-78
2022/03/22 03:50:45;;;;;;;16.13;8.52;;;;;;;4.93;48.70;101238.53;12195243;19;20372;-78
2022/03/22 03:54:47;;;;;;;16.98;8.43;;;;;;;4.93;48.88;101235.81;12178510;19;20007;-77
2022/03/22 03:58:49;;;;;;;18.07;9.27;;;;;;;4.93;48.89;101246.72;12200897;19;20036;-78
2022/03/22 04:02:53;;;;;;;17.30;8.38;;;;;;;4.92;48.84;101239.59;12175207;19;20074;-78
2022/03/22 04:06:56;;;;;;;18.10;8.65;;;;;;;4.89;49.24;101244.56;12196022;19;20307;-78
2022/03/22 04:10:57;;;;;;;17.73;7.63;;;;;;;4.85;49.18;101240.47;12192266;19;20035;-79
2022/03/22 04:14:59;;;;;;;14.55;8.65;;;;;;;4.83;49.29;101240.66;12167357;19;20027;-78
2022/03/22 04:19:00;;;;;;;14.90;8.30;;;;;;;4.82;49.57;101238.09;12201769;19;20480;-78
2022/03/22 04:23:02;;;;;;;13.80;8.20;;;;;;;4.79;49.67;101239.31;12218824;19;20659;-78
2022/03/22 04:35:48;;;;;;;16.25;8.18;;;;;;;4.85;49.45;101232.25;12208026;19;20011;-78
2022/03/22 04:39:50;;;;;;;16.38;8.00;;;;;;;4.82;49.49;101238.97;12182721;19;20024;-78
2022/03/22 04:43:51;;;;;;;14.18;7.72;;;;;;;4.78;49.91;101243.91;12202865;19;20047;-77
2022/03/22 04:47:54;;;;;;;15.23;7.13;;;;;;;4.77;50.14;101230.44;12190949;19;20007;-78
2022/03/22 05:00:41;;;;;;;15.82;8.35;;;;;;;4.67;50.75;101229.78;12180675;19;20569;-80
2022/03/22 05:04:43;;;;;;;15.13;8.38;;;;;;;4.68;50.33;101231.50;12207176;19;20393;-78
2022/03/22 05:08:45;;;;;;;18.90;9.20;;;;;;;4.67;50.22;101229.78;12202090;19;20010;-78
2022/03/22 05:12:46;;;;;;;16.10;9.20;;;;;;;4.64;50.21;101241.06;12168253;19;20074;-78
2022/03/22 05:16:49;;;;;;;15.90;8.52;;;;;;;4.61;50.71;101241.41;12200389;19;20075;-78
2022/03/22 05:20:50;;;;;;;16.00;8.30;;;;;;;4.61;50.50;101249.59;12196119;19;20010;-78
2022/03/22 05:24:53;;;;;;;13.02;7.90;;;;;;;4.64;50.57;101250.13;12206530;19;20082;-78
2022/03/22 05:28:55;;;;;;;15.70;8.43;;;;;;;4.72;50.01;101247.34;12206747;19;20346;-78
2022/03/22 05:32:57;;;;;;;16.90;8.88;;;;;;;4.81;49.88;101256.34;12186558;19;20011;-77
2022/03/22 05:36:59;;;;;;;16.67;9.05;;;;;;;4.84;49.62;101264.19;12199877;19;20002;-79
2022/03/22 05:41:02;;;;;;;16.67;8.63;;;;;;;4.96;49.30;101268.22;12207880;19;20007;-79
2022/03/22 05:45:04;;;;;;;17.27;8.90;;;;;;;5.08;48.92;101270.56;12188760;19;20010;-78
2022/03/22 05:49:08;;;;;;;17.87;8.60;;;;;;;5.12;48.92;101278.25;12203714;19;20760;-78
2022/03/22 05:53:10;;;;;;;14.63;8.48;;;;;;;5.12;48.86;101283.72;12206008;19;20065;-78
2022/03/22 05:57:12;;;;;;;14.15;8.77;;;;;;;5.05;49.15;101279.97;12173651;19;20099;-79
2022/03/22 06:01:14;;;;;;;20.33;9.13;;;;;;;4.95;49.18;101288.41;12205001;19;20010;-80
2022/03/22 06:05:17;;;;;;;17.55;9.55;;;;;;;4.89;49.11;101293.72;12207107;19;20098;-79
2022/03/22 06:09:22;;;;;;;16.52;8.43;;;;;;;4.83;49.91;101288.97;12185175;19;20077;-79
2022/03/22 06:13:24;;;;;;;19.50;9.00;;;;;;;4.71;50.09;101299.41;12199751;19;20010;-81
2022/03/22 06:17:26;;;;;;;17.35;8.93;;;;;;;4.65;50.48;101302.84;12202240;19;20354;-78
2022/03/22 06:21:29;;;;;;;16.25;8.95;;;;;;;4.58;51.35;101299.97;12177567;19;20038;-79
2022/03/22 06:25:39;;;;;;;15.77;9.02;;;;;;;4.55;51.22;101297.56;12174424;19;20089;-80
2022/03/22 06:29:41;;;;;;;14.45;8.27;;;;;;;4.55;51.36;101295.72;12221340;19;20014;-81
2022/03/22 06:33:43;;;;;;;17.27;8.35;;;;;;;4.57;51.20;101301.81;12209866;19;20017;-80
2022/03/22 06:37:47;;;;;;;15.60;8.88;;;;;;;4.66;51.13;101304.53;12235199;19;20010;-79
2022/03/22 06:41:53;;;;;;;15.70;8.50;;;;;;;4.73;51.19;101305.53;12175393;19;20015;-79
2022/03/22 06:45:55;;;;;;;16.02;8.45;;;;;;;4.82;51.16;101301.78;12203613;19;20022;-79
2022/03/22 06:49:57;;;;;;;15.50;9.03;;;;;;;4.92;50.97;101305.13;12191605;19;20007;-79
2022/03/22 06:53:58;;;;;;;17.17;9.13;;;;;;;4.98;50.84;101298.97;12181937;19;20023;-80
2022/03/22 06:58:02;;;;;;;17.08;8.50;;;;;;;5.20;50.37;101308.25;12206351;19;20076;-79
2022/03/22 07:02:07;;;;;;;16.00;8.85;;;;;;;5.42;50.14;101305.78;12213470;19;20357;-79
2022/03/22 07:06:10;;;;;;;16.38;9.30;;;;;;;5.58;50.25;101304.81;12182049;19;20025;-80
2022/03/22 07:10:14;;;;;;;15.18;8.45;;;;;;;5.78;49.80;101305.19;12202169;19;20009;-79
2022/03/22 07:14:22;;;;;;;16.75;8.57;;;;;;;5.97;49.04;101303.88;12204665;19;20006;-78
2022/03/22 07:18:26;;;;;;;27.77;9.85;;;;;;;6.19;49.20;101308.50;12185744;19;20014;-79
2022/03/22 07:22:29;;;;;;;14.82;8.68;;;;;;;6.42;49.14;101313.91;12208935;19;20010;-80
2022/03/22 07:26:31;;;;;;;15.07;8.10;;;;;;;6.61;48.77;101312.53;12211751;19;20006;-79
2022/03/22 07:30:39;;;;;;;13.68;8.25;;;;;;;6.83;48.29;101308.84;12183399;19;20038;-79
2022/03/22 07:34:43;;;;;;;16.85;9.40;;;;;;;7.03;47.30;101305.56;12213724;19;20017;-78
2022/03/22 07:38:45;;;;;;;13.02;9.13;;;;;;;7.32;46.63;101321.13;12209898;19;20015;-78
2022/03/22 07:42:48;;;;;;;20.30;8.93;;;;;;;7.54;45.45;101314.63;12185784;19;20093;-79
2022/03/22 07:46:50;;;;;;;14.82;9.23;;;;;;;7.71;45.01;101309.78;12209002;19;20007;-80
2022/03/22 07:55:14;;;;;;;20.13;9.52;;;;;;;8.09;44.58;101320.50;12214096;19;20006;-79
2022/03/22 07:59:16;;;;;;;15.45;9.13;;;;;;;8.26;44.19;101317.47;12205269;19;20014;-78
2022/03/22 08:03:18;;;;;;;17.88;9.20;;;;;;;8.42;43.55;101320.81;12183808;19;20523;-81
2022/03/22 08:07:20;;;;;;;16.63;8.88;;;;;;;8.67;43.73;101314.88;12219761;19;20433;-79
2022/03/22 08:11:24;;;;;;;15.65;9.43;;;;;;;8.83;42.79;101324.69;12212782;19;20018;-78
2022/03/22 08:15:28;;;;;;;16.52;9.40;;;;;;;9.04;42.79;101332.88;12195914;19;20014;-78
2022/03/22 08:19:30;;;;;;;19.93;10.20;;;;;;;9.11;41.78;101333.75;12217098;19;20094;-78
2022/03/22 08:23:37;;;;;;;18.30;9.95;;;;;;;9.41;42.24;101321.63;12216513;19;20007;-80
2022/03/22 08:27:39;;;;;;;19.60;10.55;;;;;;;9.58;41.33;101318.31;12185981;19;20010;-79
2022/03/22 08:31:43;;;;;;;16.20;9.35;;;;;;;9.85;41.34;101328.56;12211607;19;20003;-78
2022/03/22 08:35:51;;;;;;;15.88;9.30;;;;;;;10.09;41.27;101324.38;12215804;19;20035;-79
2022/03/22 08:39:52;;;;;;;17.75;9.80;;;;;;;10.23;41.13;101320.53;12184397;19;20034;-80
2022/03/22 08:43:54;;;;;;;19.80;10.50;;;;;;;10.39;41.27;101319.34;12210998;19;20013;-80
2022/03/22 08:47:59;;;;;;;17.10;10.45;;;;;;;10.52;41.29;101321.22;12188805;19;20010;-80
2022/03/22 08:52:00;;;;;;;14.80;10.13;;;;;;;10.67;40.78;101330.97;12209970;19;20011;-82
2022/03/22 08:56:04;;;;;;;;;;;;;;;10.91;40.95;101329.44;12209765;19;20038;-80
2022/03/22 09:00:09;;;;;;;20.08;10.23;;;;;;;11.08;40.22;101326.25;12196456;19;20583;-80
2022/03/22 09:08:35;;;;;;;16.58;10.05;;;;;;;11.41;39.93;101317.84;12209849;19;20014;-80
2022/03/22 09:12:38;;;;;;;16.55;10.43;;;;;;;11.60;39.33;101322.44;12175314;19;20006;-79
2022/03/22 09:16:42;;;;;;;15.07;9.90;;;;;;;11.75;39.08;101327.69;12210335;19;20397;-80
2022/03/22 09:20:46;;;;;;;18.25;10.88;;;;;;;11.98;39.02;101320.75;12208022;19;20043;-81
2022/03/22 09:24:48;;;;;;;19.17;9.98;;;;;;;12.08;38.18;101326.66;12187246;19;20015;-79
2022/03/22 09:28:52;;;;;;;15.77;10.55;;;;;;;12.11;37.56;101328.16;12207767;19;20428;-79
2022/03/22 09:32:56;;;;;;;16.95;10.27;;;;;;;12.26;37.62;101325.91;12193118;19;20052;-80
2022/03/22 09:37:00;;;;;;;18.50;10.35;;;;;;;12.48;36.51;101318.06;12208999;19;20392;-78
2022/03/22 09:41:02;;;;;;;14.57;9.10;;;;;;;12.70;36.60;101321.25;12203936;19;20014;-77
2022/03/22 09:45:08;;;;;;;13.48;9.55;;;;;;;12.89;36.63;101322.16;12182700;19;20375;-77
2022/03/22 09:49:10;;;;;;;14.63;9.48;;;;;;;13.08;36.06;101320.25;12211713;19;20041;-77
2022/03/22 09:53:15;;;;;;;15.15;9.23;;;;;;;13.29;35.52;101313.44;12202885;19;20015;-76
2022/03/22 09:57:17;;;;;;;16.55;9.80;;;;;;;13.36;35.07;101319.75;12181225;19;20014;-77
2022/03/22 10:01:21;;;;;;;;;;;;;;;13.33;34.21;101320.22;12203044;19;20007;-78
2022/03/22 10:05:26;;;;;;;17.75;9.32;;;;;;;13.49;34.52;101316.81;12203736;19;19919;-77
2022/03/22 10:09:36;;;;;;;16.13;9.93;;;;;;;13.64;34.65;101320.00;12176465;19;20041;-78
2022/03/22 10:13:57;;;;;;;17.88;10.75;;;;;;;13.76;33.20;101317.28;12206351;19;20041;-77
2022/03/22 10:18:10;;;;;;;15.30;10.10;;;;;;;13.73;33.23;101309.44;12186262;19;20357;-78
2022/03/22 10:22:13;;;;;;;16.75;9.90;;;;;;;13.71;33.59;101313.53;12198999;19;20769;-77
2022/03/22 10:26:17;;;;;;;17.25;9.35;;;;;;;13.98;33.80;101303.78;12203650;19;20042;-79
2022/03/22 10:30:23;;;;;;;15.55;10.18;;;;;;;14.31;33.91;101299.66;12187981;19;20082;-80
2022/03/22 10:34:31;;;;;;;14.23;10.10;;;;;;;14.49;32.79;101295.94;12199908;19;20082;-77
2022/03/22 10:38:34;;;;;;;16.92;9.75;;;;;;;14.59;33.38;101301.75;12211599;19;20003;-77
2022/03/22 10:42:38;;;;;;;15.57;9.98;;;;;;;14.71;32.23;101287.88;12174566;19;20027;-78
2022/03/22 10:46:42;;;;;;;14.80;9.70;;;;;;;14.76;32.23;101283.31;12211287;19;20027;-78
2022/03/22 10:50:48;;;;;;;13.30;9.55;;;;;;;14.97;31.57;101283.78;12196719;19;20010;-77
2022/03/22 10:54:50;;;;;;;18.35;11.38;;;;;;;15.18;32.23;101277.56;12171787;19;20080;-78
2022/03/22 10:58:55;;;;;;;14.35;9.73;;;;;;;15.39;31.76;101278.00;12199791;19;20014;-77
2022/03/22 11:02:57;;;;;;;16.77;9.98;;;;;;;15.54;31.39;101274.69;12179356;19;20031;-78
2022/03/22 11:07:04;;;;;;;17.42;10.07;;;;;;;15.71;30.97;101270.06;12198074;19;20011;-78
2022/03/22 11:11:07;;;;;;;16.42;10.13;;;;;;;15.80;30.62;101262.19;12200375;19;20010;-79
2022/03/22 11:15:09;;;;;;;14.13;9.38;;;;;;;15.65;30.46;101265.47;12179870;19;20015;-79
2022/03/22 11:19:12;;;;;;;16.35;9.70;;;;;;;15.67;29.74;101266.06;12199115;19;20030;-79
2022/03/22 11:23:17;;;;;;;;;;;;;;;15.80;29.95;101262.19;12211795;19;20002;-79
2022/03/22 11:27:29;;;;;;;14.07;9.13;;;;;;;16.01;30.01;101263.41;12184331;19;19914;-79
2022/03/22 11:31:34;;;;;;;14.73;9.25;;;;;;;16.17;29.13;101248.66;12207158;19;20325;-79
2022/03/22 11:35:59;;;;;;;16.48;10.18;;;;;;;16.24;29.06;101246.56;12210117;19;20018;-78
2022/03/22 11:44:31;;;;;;;13.52;9.68;;;;;;;16.38;28.58;101233.97;12203637;19;20517;-78
2022/03/22 11:48:33;;;;;;;18.98;10.10;;;;;;;16.83;28.70;101234.94;12195337;19;20011;-78
2022/03/22 11:52:35;;;;;;;15.63;10.20;;;;;;;17.21;27.72;101227.66;12214786;19;20067;-79
2022/03/22 11:56:45;;;;;;;16.35;9.68;;;;;;;17.67;28.00;101223.47;12211111;19;20370;-79
2022/03/22 12:00:56;;;;;;;18.35;10.68;;;;;;;18.41;27.29;101224.69;12177873;19;20014;-79
2022/03/22 12:05:01;;;;;;;14.00;10.23;;;;;;;19.19;26.97;101222.13;12208608;19;20011;-77
2022/03/22 12:09:06;;;;;;;13.32;9.93;;;;;;;19.81;26.07;101203.59;12183687;19;20007;-78
2022/03/22 12:13:08;;;;;;;14.60;11.13;;;;;;;20.21;24.99;101210.31;12212545;19;20598;-77
2022/03/22 12:17:12;;;;;;;13.73;10.80;;;;;;;20.49;24.50;101197.66;12209021;19;20010;-79
2022/03/22 12:21:19;;;;;;;15.23;9.75;;;;;;;20.84;24.30;101195.94;12190957;19;20041;-80
2022/03/22 12:25:24;;;;;;;13.75;10.25;;;;;;;21.15;23.03;101199.50;12214400;19;20045;-81
2022/03/22 12:29:27;;;;;;;14.02;10.05;;;;;;;21.64;23.23;101195.03;12208905;19;20019;-81
2022/03/22 12:33:36;;;;;;;12.50;9.90;;;;;;;21.91;23.06;101184.19;12196687;19;20027;-80
2022/03/22 12:37:38;;;;;;;14.27;10.55;;;;;;;22.33;23.13;101176.25;12214674;19;20464;-81
2022/03/22 12:41:43;;;;;;;13.63;9.18;;;;;;;22.45;21.88;101166.28;12217393;19;20007;-81
2022/03/22 12:45:49;;;;;;;13.95;9.45;;;;;;;22.91;21.42;101177.03;12194485;19;20032;-81
2022/03/22 12:49:51;;;;;;;13.68;10.55;;;;;;;23.49;21.19;101166.72;12211813;19;20019;-81
2022/03/22 12:54:02;;;;;;;10.98;9.35;;;;;;;23.41;19.96;101162.66;12192887;19;20030;-81
2022/03/22 12:58:04;;;;;;;13.77;9.75;;;;;;;23.41;20.12;101151.41;12214608;19;20026;-81
2022/03/22 13:02:06;;;;;;;11.93;9.32;;;;;;;23.53;19.86;101151.78;12213904;19;20006;-81
2022/03/22 13:06:11;;;;;;;10.80;8.98;;;;;;;24.38;20.18;101144.16;12190143;19;20074;-80
2022/03/22 13:18:59;;;;;;;12.18;8.50;;;;;;;23.17;20.02;101143.00;12187909;19;20102;-82
2022/03/22 13:23:04;;;;;;;14.50;9.85;;;;;;;22.49;20.53;101133.69;12210802;19;20472;-81
2022/03/22 13:27:07;;;;;;;10.20;7.90;;;;;;;21.50;20.79;101121.91;12187272;19;20007;-82
2022/03/22 13:31:20;;;;;;;15.00;9.45;;;;;;;20.90;21.18;101122.78;12210531;19;20002;-81
2022/03/22 13:35:23;;;;;;;11.85;8.25;;;;;;;20.14;21.88;101118.25;12210160;19;20066;-80
2022/03/22 13:39:26;;;;;;;11.68;8.38;;;;;;;19.78;21.91;101114.63;12194716;19;20007;-80
2022/03/22 13:43:29;;;;;;;13.13;9.27;;;;;;;19.38;22.26;101099.47;12214240;19;20485;-80
2022/03/22 13:47:36;;;;;;;11.75;8.93;;;;;;;19.39;23.04;101103.94;12213833;19;20013;-81
2022/03/22 13:51:40;;;;;;;12.07;7.90;;;;;;;19.38;22.39;101102.25;12193672;19;20011;-81
2022/03/22 13:56:04;;;;;;;11.60;8.43;;;;;;;20.30;22.18;101096.66;12214294;19;20011;-82
2022/03/22 14:00:07;;;;;;;12.57;9.30;;;;;;;21.68;21.75;101095.13;12191775;19;20010;-81
2022/03/22 14:04:11;;;;;;;13.98;8.98;;;;;;;22.29;21.08;101088.97;12210819;19;20094;-81
2022/03/22 14:08:19;;;;;;;11.98;8.75;;;;;;;21.48;21.39;101093.34;12212787;19;20011;-81
2022/03/22 14:12:21;;;;;;;14.00;8.80;;;;;;;20.91;21.88;101087.19;12199041;19;20856;-81
2022/03/22 14:16:25;;;;;;;15.30;8.65;;;;;;;20.34;22.04;101080.97;12213939;19;20027;-81
2022/03/22 14:20:29;;;;;;;12.70;8.00;;;;;;;19.76;22.61;101083.31;12206384;19;20011;-80
2022/03/22 14:24:32;;;;;;;13.10;7.85;;;;;;;19.56;23.07;101070.97;12225078;19;20010;-80
2022/03/22 14:28:35;;;;;;;13.23;9.25;;;;;;;19.13;23.16;101070.38;12243699;19;20007;-80
2022/03/22 14:32:42;;;;;;;12.43;8.82;;;;;;;19.07;24.04;101071.47;12239192;19;20015;-81
2022/03/22 14:36:44;;;;;;;15.13;8.98;;;;;;;18.97;23.91;101065.03;12179025;19;20011;-80
2022/03/22 14:40:49;;;;;;;15.05;8.30;;;;;;;19.07;23.60;101065.06;12212997;19;20011;-80
2022/03/22 14:44:55;;;;;;;11.70;8.40;;;;;;;19.29;24.28;101065.63;12171212;19;20003;-79
2022/03/22 14:48:56;;;;;;;17.27;8.90;;;;;;;19.53;23.51;101053.91;12214775;19;20014;-82
2022/03/22 15:01:44;;;;;;;14.82;8.52;;;;;;;21.92;21.83;101041.88;12209561;19;20776;-80
2022/03/22 15:05:51;;;;;;;12.40;8.43;;;;;;;21.78;22.22;101033.34;12201089;19;20014;-80
2022/03/22 15:09:54;;;;;;;11.48;8.65;;;;;;;21.36;22.02;101029.22;12177682;19;20011;-79
2022/03/22 15:13:57;;;;;;;12.55;7.97;;;;;;;20.95;22.52;101029.47;12197025;19;20011;-79
2022/03/22 15:18:02;;;;;;;11.25;7.43;;;;;;;20.63;22.57;101024.34;12181878;19;20031;-79
2022/03/22 15:22:04;;;;;;;13.98;9.40;;;;;;;20.22;23.34;101030.88;12199703;19;20020;-79
2022/03/22 15:26:07;;;;;;;10.93;8.00;;;;;;;19.74;22.80;101027.66;12207456;19;20616;-81
2022/03/22 15:30:10;;;;;;;14.00;7.82;;;;;;;19.82;22.97;101020.66;12177829;19;20011;-79
2022/03/22 15:34:11;;;;;;;13.15;9.57;;;;;;;19.90;23.67;101024.81;12202861;19;20070;-80
2022/03/22 15:38:14;;;;;;;14.77;9.55;;;;;;;19.93;23.84;101022.31;12201937;19;20057;-79
2022/03/22 15:42:16;;;;;;;15.63;9.70;;;;;;;19.90;23.83;101016.44;12184150;19;20499;-79
2022/03/22 15:46:24;;;;;;;16.27;10.13;;;;;;;19.75;24.38;101011.69;12196123;19;20047;-80
2022/03/22 15:50:33;;;;;;;19.90;10.27;;;;;;;19.48;24.98;101010.03;12205714;19;20013;-79
2022/03/22 15:54:37;;;;;;;15.32;10.32;;;;;;;19.27;25.06;101002.75;12183279;19;20015;-79
2022/03/22 15:58:39;;;;;;;19.52;11.05;;;;;;;19.09;25.11;101009.72;12199638;19;20118;-79
2022/03/22 16:02:40;;;;;;;18.13;10.70;;;;;;;18.97;26.09;101012.78;12201045;19;20011;-79
2022/03/22 16:06:46;;;;;;;17.85;12.25;;;;;;;19.16;25.83;101012.28;12174260;19;20007;-78
2022/03/22 16:10:48;;;;;;;18.02;10.52;;;;;;;19.02;25.69;101011.97;12198992;19;20022;-79
2022/03/22 16:14:50;;;;;;;15.07;10.75;;;;;;;18.74;26.17;101016.94;12202130;19;20011;-79
2022/03/22 16:18:52;;;;;;;17.17;11.10;;;;;;;18.42;26.35;101014.28;12176095;19;20042;-78
2022/03/22 16:22:57;;;;;;;16.13;10.27;;;;;;;18.47;26.67;101010.66;12216337;19;20015;-78
2022/03/22 16:27:02;;;;;;;15.63;10.68;;;;;;;18.30;26.60;101017.31;12192495;19;20010;-80
2022/03/22 16:31:27;;;;;;;16.00;10.65;;;;;;;17.97;27.20;101007.38;12205951;19;20031;-78
2022/03/22 16:40:01;;;;;;;15.75;10.15;;;;;;;17.49;27.50;101012.00;12182323;19;19915;-83
2022/03/22 16:44:06;;;;;;;19.35;11.73;;;;;;;17.32;27.65;101020.53;12196585;19;20014;-82
2022/03/22 16:48:11;;;;;;;16.02;11.25;;;;;;;17.36;27.77;101023.63;12189271;19;20113;-81
2022/03/22 16:52:16;;;;;;;17.58;10.77;;;;;;;17.44;27.62;101023.13;12201927;19;20018;-81
2022/03/22 16:56:23;;;;;;;16.95;11.50;;;;;;;17.61;28.02;101031.34;12209746;19;20010;-82
2022/03/22 17:00:27;;;;;;;21.35;12.02;;;;;;;17.38;27.96;101033.41;12186966;19;20487;-81
2022/03/22 17:04:29;;;;;;;21.90;12.37;;;;;;;16.91;28.63;101039.63;12204531;19;20507;-81
2022/03/22 17:08:31;;;;;;;22.08;12.13;;;;;;;16.56;29.05;101045.59;12209086;19;20102;-81
2022/03/22 17:12:34;;;;;;;18.65;12.82;;;;;;;16.43;29.13;101054.34;12174688;19;20010;-81
2022/03/22 17:16:39;;;;;;;17.38;11.25;;;;;;;16.32;29.36;101042.22;12210166;19;20026;-82
2022/03/22 17:20:41;;;;;;;19.05;11.73;;;;;;;16.24;29.51;101051.88;12212226;19;20018;-81
2022/03/22 17:24:44;;;;;;;;;;;;;;;15.90;30.02;101051.94;12182138;19;20006;-82
2022/03/22 17:28:48;;;;;;;19.52;11.07;;;;;;;15.53;30.22;101053.53;12203914;19;19911;-82
2022/03/22 17:32:49;;;;;;;17.48;11.82;;;;;;;15.13;31.06;101051.72;12208181;19;20010;-81
2022/03/22 17:36:55;;;;;;;18.83;10.98;;;;;;;14.68;32.03;101052.53;12180727;19;20062;-81
2022/03/22 17:40:58;;;;;;;16.80;11.45;;;;;;;14.19;32.81;101061.22;12202756;19;20741;-81
2022/03/22 17:45:00;;;;;;;19.42;10.82;;;;;;;13.77;33.22;101066.03;12179428;19;20082;-81
2022/03/22 17:49:02;;;;;;;18.77;11.18;;;;;;;13.40;33.86;101071.78;12201465;19;20074;-82
2022/03/22 17:53:04;;;;;;;18.40;11.02;;;;;;;13.08;34.25;101063.72;12208286;19;20014;-81
2022/03/22 17:57:07;;;;;;;17.50;10.87;;;;;;;12.83;34.38;101068.56;12184677;19;20003;-81
2022/03/22 18:01:12;;;;;;;21.07;11.00;;;;;;;12.60;34.95;101074.84;12202933;19;20015;-81
2022/03/22 18:05:17;;;;;;;17.63;11.13;;;;;;;12.38;35.47;101074.47;12204445;19;20023;-81
2022/03/22 18:09:28;;;;;;;21.08;12.07;;;;;;;12.12;35.67;101076.47;12183861;19;20530;-81
2022/03/22 18:13:34;;;;;;;22.70;12.38;;;;;;;11.90;36.01;101086.25;12208652;19;20006;-81
2022/03/22 18:17:37;;;;;;;20.77;12.00;;;;;;;11.70;36.46;101084.50;12205967;19;20010;-83
2022/03/22 18:21:39;;;;;;;22.35;12.75;;;;;;;11.51;36.85;101083.59;12185025;19;20010;-82
2022/03/22 18:25:41;;;;;;;24.10;12.60;;;;;;;11.36;37.19;101089.47;12200572;19;20089;-83
2022/03/22 18:29:44;;;;;;;20.20;12.50;;;;;;;11.22;37.48;101081.50;12204732;19;20015;-82
2022/03/22 18:33:47;;;;;;;19.00;11.82;;;;;;;11.07;37.58;101090.94;12181938;19;20108;-82
2022/03/22 18:37:50;;;;;;;21.85;12.88;;;;;;;10.94;37.84;101088.22;12203896;19;20007;-82
2022/03/22 18:41:54;;;;;;;;;;;;;;;10.81;38.04;101093.84;12185319;19;20014;-82
2022/03/22 18:45:58;;;;;;;22.27;11.20;;;;;;;10.69;38.05;101099.19;12203666;19;19958;-82
2022/03/22 18:50:02;;;;;;;26.23;12.45;;;;;;;10.58;38.41;101094.34;12199564;19;20011;-84
2022/03/22 18:54:07;;;;;;;22.17;12.52;;;;;;;10.49;38.70;101100.09;12187046;19;20024;-79
2022/03/22 18:58:10;;;;;;;22.23;11.43;;;;;;;10.40;38.76;101095.06;12220650;19;20002;-80
2022/03/22 19:02:12;;;;;;;24.23;11.47;;;;;;;10.33;38.99;101100.59;12212902;19;20003;-82
2022/03/22 19:06:14;;;;;;;20.23;11.80;;;;;;;10.27;39.27;101099.56;12180753;19;20102;-81
2022/03/22 19:10:16;;;;;;;;;;;;;;;10.19;39.77;101098.91;12204800;19;20486;-82
2022/03/22 19:14:23;;;;;;;22.77;10.95;;;;;;;10.13;39.52;101095.13;12203050;19;19914;-81
2022/03/22 19:18:27;;;;;;;;;;;;;;;10.08;39.91;101092.16;12172531;19;20007;-81
2022/03/22 19:22:29;;;;;;;;;;;;;;;10.03;40.04;101089.22;12200694;19;19911;-83
2022/03/22 19:26:33;;;;;;;20.48;10.52;;;;;;;9.96;39.65;101089.22;12199565;19;19962;-82
2022/03/22 19:32:53;;;;;;;18.77;10.60;;;;;;;9.91;40.17;101090.94;12166826;19;20079;-82
2022/03/22 19:34:57;;;;;;;19.42;10.65;;;;;;;9.86;40.48;101083.31;12205849;19;20011;-82
2022/03/22 19:39:00;;;;;;;;;;;;;;;9.81;40.43;101081.22;12180001;19;20499;-81
2022/03/22 19:43:02;;;;;;;16.70;9.77;;;;;;;9.85;40.18;101087.13;12200514;19;20364;-82
2022/03/22 19:47:05;;;;;;;18.30;10.80;;;;;;;9.87;39.96;101085.00;12196976;19;20022;-82